Time;durP1;ratioP1;P1;durP2;ratioP2;P2;SDS_P1;SDS_P2;PMS_P1;PMS_P2;Temp;Humidity;BMP_temperature;BMP_pressure;BME280_temperature;BME280_humidity;BME280_pressure;Samples;Min_cycle;Max_cycle;Signal;HPM_P1;HPM_P2
2022/01/24 00:02:42;;;;;;;17.85;7.47;;;;;;;5.04;70.06;101700.78;5027755;28;20114;-78
2022/01/24 00:05:10;;;;;;;14.30;7.05;;;;;;;5.02;70.44;101700.00;5013984;28;20048;-78
2022/01/24 00:07:37;;;;;;;13.10;5.93;;;;;;;5.01;70.18;101691.22;5056418;28;20045;-78
2022/01/24 00:10:09;;;;;;;31.58;8.70;;;;;;;5.02;70.19;101695.59;5040664;28;20127;-80
2022/01/24 00:12:48;;;;;;;14.23;5.85;;;;;;;4.99;69.61;101691.28;5030484;28;20045;-78
2022/01/24 00:28:00;;;;;;;17.38;6.70;;;;;;;4.78;69.66;101702.53;4980808;28;20395;-78
2022/01/24 00:30:27;;;;;;;17.48;6.57;;;;;;;4.72;69.57;101706.25;5037495;28;20041;-78
2022/01/24 00:32:53;;;;;;;17.58;6.97;;;;;;;4.73;69.70;101710.63;5019039;28;20048;-78
2022/01/24 00:35:20;;;;;;;15.95;6.43;;;;;;;4.73;70.08;101709.75;5055317;28;20132;-78
2022/01/24 00:37:47;;;;;;;21.10;7.50;;;;;;;4.73;70.05;101710.63;5029974;28;20511;-78
2022/01/24 00:40:14;;;;;;;14.98;7.90;;;;;;;4.74;69.89;101708.84;5039490;28;20345;-79
2022/01/24 00:45:27;;;;;;;15.27;7.63;;;;;;;4.74;70.27;101716.75;5054083;28;20044;-78
2022/01/24 00:55:49;;;;;;;19.45;8.02;;;;;;;4.69;70.23;101722.16;5051030;28;20043;-79
2022/01/24 00:58:15;;;;;;;19.73;7.88;;;;;;;4.71;70.54;101709.81;5023186;28;20071;-79
2022/01/24 01:00:42;;;;;;;14.57;7.38;;;;;;;4.74;70.70;101722.00;5068856;28;20055;-78
2022/01/24 01:03:09;;;;;;;15.75;7.55;;;;;;;4.72;70.50;101708.88;5037260;28;20103;-78
2022/01/24 01:19:45;;;;;;;17.38;7.35;;;;;;;4.69;70.51;101708.13;5029489;28;20049;-78
2022/01/24 01:22:12;;;;;;;19.15;7.10;;;;;;;4.69;70.78;101694.97;5038211;28;20519;-78
2022/01/24 01:24:45;;;;;;;17.35;8.00;;;;;;;4.67;70.54;101694.16;5040798;28;20048;-81
2022/01/24 01:27:17;;;;;;;15.23;7.40;;;;;;;4.67;70.74;101694.16;5044089;28;20051;-78
2022/01/24 01:29:57;;;;;;;15.15;6.90;;;;;;;4.65;70.52;101683.69;5024281;28;20044;-78
2022/01/24 01:35:25;;;;;;;19.05;6.93;;;;;;;4.64;70.52;101687.25;5047222;28;20454;-78
2022/01/24 01:52:16;;;;;;;16.02;6.78;;;;;;;4.65;70.59;101686.31;5019788;28;20052;-78
2022/01/24 01:55:44;;;;;;;12.18;6.10;;;;;;;4.61;71.17;101694.41;4994896;28;20106;-78
2022/01/24 01:58:13;;;;;;;13.35;6.47;;;;;;;4.62;71.34;101691.69;5041411;28;20048;-78
2022/01/24 02:00:46;;;;;;;12.38;5.65;;;;;;;4.60;71.30;101690.88;5038861;28;20037;-78
2022/01/24 02:03:13;;;;;;;16.40;6.72;;;;;;;4.61;71.06;101684.72;5025296;28;20599;-78
2022/01/24 02:05:40;;;;;;;14.70;6.25;;;;;;;4.63;71.02;101688.16;5052890;28;20071;-78
2022/01/24 02:08:07;;;;;;;13.77;6.53;;;;;;;4.64;71.24;101691.66;5046107;28;20032;-78
2022/01/24 02:10:36;;;;;;;12.20;5.78;;;;;;;4.64;71.14;101687.25;5031873;28;20066;-78
2022/01/24 02:13:03;;;;;;;14.43;6.22;;;;;;;4.65;70.96;101677.56;5038378;28;20124;-78
2022/01/24 02:18:16;;;;;;;11.52;5.45;;;;;;;4.64;70.74;101674.09;5055783;28;20052;-79
2022/01/24 02:21:27;;;;;;;15.65;5.80;;;;;;;4.61;70.46;101681.25;5004199;28;20041;-78
2022/01/24 02:26:14;;;;;;;10.77;5.80;;;;;;;4.62;70.88;101675.91;5036754;28;20048;-79
2022/01/24 02:28:53;;;;;;;12.30;5.65;;;;;;;4.62;71.09;101675.91;5048817;28;20060;-78
2022/01/24 02:31:37;;;;;;;10.45;5.35;;;;;;;4.63;70.96;101667.13;5021292;28;20491;-78
2022/01/24 02:34:32;;;;;;;9.98;5.72;;;;;;;4.56;71.18;101666.47;4995851;28;20128;-78
2022/01/24 02:37:03;;;;;;;11.50;5.80;;;;;;;4.62;71.39;101669.78;5010990;28;20064;-79
2022/01/24 02:52:58;;;;;;;11.38;5.60;;;;;;;4.57;70.96;101651.53;5057461;28;20037;-78
2022/01/24 02:55:25;;;;;;;9.65;5.28;;;;;;;4.59;71.03;101654.97;5025937;28;20090;-78
2022/01/24 02:57:52;;;;;;;10.65;5.47;;;;;;;4.59;71.17;101651.47;5037948;28;20056;-82
2022/01/24 03:00:19;;;;;;;10.80;5.38;;;;;;;4.57;71.36;101656.78;5019488;28;20136;-78
2022/01/24 03:02:45;;;;;;;11.63;5.45;;;;;;;4.57;71.33;101652.38;5053197;28;20045;-78
2022/01/24 03:05:12;;;;;;;10.40;4.90;;;;;;;4.58;71.43;101658.53;5039087;28;20495;-78
2022/01/24 03:08:06;;;;;;;10.95;4.55;;;;;;;4.49;71.36;101648.31;5021170;28;20123;-78
2022/01/24 03:10:38;;;;;;;9.90;4.82;;;;;;;4.56;71.48;101648.03;5030256;28;20041;-78
2022/01/24 03:15:46;;;;;;;7.63;4.53;;;;;;;4.56;71.29;101648.03;5038867;28;20139;-80
2022/01/24 03:18:13;;;;;;;13.27;5.80;;;;;;;4.59;71.09;101644.44;5055308;28;20373;-78
2022/01/24 03:20:40;;;;;;;14.32;5.78;;;;;;;4.61;70.86;101639.13;5025863;28;20403;-78
2022/01/24 03:23:07;;;;;;;9.52;5.93;;;;;;;4.50;70.85;101640.38;5051616;28;20049;-78
2022/01/24 03:25:34;;;;;;;15.40;6.13;;;;;;;4.48;70.41;101638.69;5037963;28;20049;-78
2022/01/24 03:28:03;;;;;;;15.27;5.82;;;;;;;4.47;70.84;101636.97;5042865;28;20048;-78
2022/01/24 03:30:31;;;;;;;16.27;6.43;;;;;;;4.45;70.93;101629.16;5027795;28;20048;-78
2022/01/24 03:32:58;;;;;;;14.02;5.78;;;;;;;4.48;70.90;101646.59;5026880;28;20139;-78
2022/01/24 03:35:25;;;;;;;12.85;6.47;;;;;;;4.46;71.03;101638.75;5022699;28;20045;-78
2022/01/24 03:37:52;;;;;;;12.95;6.45;;;;;;;4.42;71.26;101642.38;5045168;28;20041;-78
2022/01/24 03:40:19;;;;;;;12.23;6.10;;;;;;;4.46;71.08;101644.00;5036553;28;20041;-78
2022/01/24 03:42:46;;;;;;;11.82;5.93;;;;;;;4.43;71.16;101638.84;5053364;28;20045;-78
2022/01/24 03:45:12;;;;;;;10.45;5.63;;;;;;;4.40;71.33;101641.59;5025281;28;20066;-78
2022/01/24 03:47:56;;;;;;;14.63;6.22;;;;;;;4.43;71.16;101638.84;5039300;28;20049;-78
2022/01/24 03:50:23;;;;;;;13.77;6.28;;;;;;;4.44;71.61;101651.09;5040620;28;20049;-78
2022/01/24 03:52:49;;;;;;;15.35;6.93;;;;;;;4.43;71.62;101645.88;5013013;28;20049;-78
2022/01/24 03:55:16;;;;;;;14.98;6.95;;;;;;;4.44;71.38;101651.09;5025697;28;20049;-78
2022/01/24 03:57:44;;;;;;;16.67;5.50;;;;;;;4.48;70.97;101644.81;5027883;28;20040;-78
2022/01/24 04:00:11;;;;;;;13.00;5.65;;;;;;;4.48;70.70;101642.19;5011202;28;20049;-78
2022/01/24 04:03:14;;;;;;;9.82;5.18;;;;;;;4.32;70.72;101646.22;5038422;28;20048;-78
2022/01/24 04:05:42;;;;;;;10.98;5.57;;;;;;;4.35;71.04;101644.38;5003982;28;20537;-78
2022/01/24 04:08:09;;;;;;;10.77;5.35;;;;;;;4.36;71.20;101637.34;5053552;28;20042;-78
2022/01/24 04:10:49;;;;;;;10.82;5.47;;;;;;;4.39;71.32;101633.75;5027692;28;20040;-78
2022/01/24 04:13:35;;;;;;;11.60;5.68;;;;;;;4.37;71.06;101631.16;5031690;28;20059;-78
2022/01/24 04:24:20;;;;;;;11.05;6.00;;;;;;;4.45;71.19;101630.88;5020569;28;22550;-78
2022/01/24 04:26:46;;;;;;;9.48;5.50;;;;;;;4.39;71.40;101620.59;4995361;28;20150;-78
2022/01/24 04:29:12;;;;;;;11.32;5.80;;;;;;;4.42;71.63;101618.69;5041208;28;20052;-78
2022/01/24 04:31:39;;;;;;;12.50;6.20;;;;;;;4.43;71.85;101625.69;5024171;28;20033;-78
2022/01/24 04:34:06;;;;;;;11.27;5.97;;;;;;;4.44;71.91;101630.03;5047391;28;20044;-78
2022/01/24 04:36:33;;;;;;;13.88;6.10;;;;;;;4.46;71.83;101622.09;5061495;28;20048;-78
2022/01/24 04:39:00;;;;;;;10.40;5.60;;;;;;;4.47;71.97;101626.44;5033434;28;20044;-78
2022/01/24 04:41:31;;;;;;;9.27;4.50;;;;;;;4.46;72.16;101622.97;5054211;28;20158;-79
2022/01/24 04:52:35;;;;;;;13.23;6.60;;;;;;;4.44;72.18;101629.19;5036309;28;20045;-78
2022/01/24 04:55:02;;;;;;;10.70;5.28;;;;;;;4.45;72.25;101629.16;4996684;28;20496;-78
2022/01/24 04:57:29;;;;;;;12.43;6.65;;;;;;;4.45;72.65;101631.78;5028333;28;20126;-78
2022/01/24 04:59:58;;;;;;;11.35;5.15;;;;;;;4.48;72.55;101625.56;5054810;28;20399;-78
2022/01/24 05:02:26;;;;;;;13.07;6.13;;;;;;;4.48;72.62;101622.91;5044000;28;20048;-78
2022/01/24 05:04:54;;;;;;;9.68;5.82;;;;;;;4.49;72.82;101627.25;5027550;28;20041;-78
2022/01/24 05:07:21;;;;;;;13.60;6.90;;;;;;;4.49;72.86;101625.47;5052168;28;20049;-78
2022/01/24 05:10:16;;;;;;;13.38;6.72;;;;;;;4.50;72.81;101621.97;5003019;28;20044;-78
2022/01/24 05:23:34;;;;;;;15.00;7.38;;;;;;;4.52;72.51;101621.88;5035045;28;20048;-78
2022/01/24 05:26:30;;;;;;;17.75;7.18;;;;;;;4.44;72.29;101618.66;5054994;28;20049;-81
2022/01/24 05:28:57;;;;;;;14.55;6.75;;;;;;;4.54;72.70;101620.91;4982659;28;20071;-78
2022/01/24 05:31:30;;;;;;;12.02;6.20;;;;;;;4.53;72.49;101615.72;5031217;28;20059;-78
2022/01/24 05:33:57;;;;;;;12.07;6.07;;;;;;;4.55;72.78;101617.38;5049148;28;20411;-79
2022/01/24 05:36:23;;;;;;;14.38;7.03;;;;;;;4.57;72.44;101623.44;5004289;28;20431;-78
2022/01/24 05:43:01;;;;;;;16.25;7.20;;;;;;;4.54;72.35;101620.91;5040837;28;20051;-80
2022/01/24 05:45:56;;;;;;;12.43;6.88;;;;;;;4.47;72.29;101616.78;5006683;28;20040;-79
2022/01/24 05:48:54;;;;;;;13.75;6.72;;;;;;;4.47;72.37;101619.41;4984713;28;21119;-78
2022/01/24 05:52:12;;;;;;;17.73;7.80;;;;;;;4.47;72.43;101616.78;5038654;28;20063;-78
2022/01/24 05:54:40;;;;;;;17.70;8.45;;;;;;;4.57;72.58;101612.06;4998074;28;20059;-79
2022/01/24 05:57:07;;;;;;;16.63;7.30;;;;;;;4.59;72.34;101614.66;5030669;28;20461;-79
2022/01/24 05:59:36;;;;;;;12.98;6.70;;;;;;;4.60;72.28;101606.69;5039133;28;20072;-82
2022/01/24 06:02:04;;;;;;;19.50;8.10;;;;;;;4.61;72.36;101610.19;5026601;28;20041;-79
2022/01/24 06:04:31;;;;;;;15.45;7.90;;;;;;;4.61;72.55;101604.94;5027694;28;20053;-79
2022/01/24 06:06:57;;;;;;;16.35;7.45;;;;;;;4.61;72.20;101603.16;5002419;28;20131;-79
2022/01/24 06:09:24;;;;;;;15.52;7.45;;;;;;;4.61;72.26;101604.94;5020694;28;20040;-79
2022/01/24 06:11:53;;;;;;;13.27;6.65;;;;;;;4.64;72.32;101612.72;5019282;28;20052;-79
2022/01/24 06:14:21;;;;;;;15.48;6.72;;;;;;;4.63;72.57;101617.13;5016699;28;20116;-78
2022/01/24 06:16:48;;;;;;;11.80;7.55;;;;;;;4.63;72.39;101614.50;4984779;28;20045;-79
2022/01/24 06:19:42;;;;;;;11.73;6.35;;;;;;;4.53;72.32;101619.22;5001725;28;20072;-79
2022/01/24 06:22:09;;;;;;;14.90;5.80;;;;;;;4.62;72.48;101617.16;4935832;28;20353;-79
2022/01/24 06:24:36;;;;;;;15.48;6.78;;;;;;;4.62;72.61;101620.66;5019646;28;20041;-79
2022/01/24 06:27:47;;;;;;;11.70;5.50;;;;;;;4.53;72.55;101631.50;4979184;28;20202;-79
2022/01/24 06:30:14;;;;;;;14.18;7.57;;;;;;;4.61;72.74;101637.34;4984117;28;20083;-79
2022/01/24 06:32:41;;;;;;;12.77;7.18;;;;;;;4.64;72.60;101636.41;5034558;28;20039;-78
2022/01/24 06:35:09;;;;;;;17.52;6.78;;;;;;;4.61;72.12;101629.47;5037964;28;20040;-78
2022/01/24 06:37:41;;;;;;;12.80;6.65;;;;;;;4.59;72.02;101638.31;5025099;28;20055;-78
2022/01/24 06:40:09;;;;;;;17.08;7.18;;;;;;;4.60;72.21;101638.25;5042408;28;20044;-78
2022/01/24 06:42:38;;;;;;;14.68;6.85;;;;;;;4.61;72.25;101645.25;5059920;28;20399;-78
2022/01/24 06:45:06;;;;;;;18.73;7.50;;;;;;;4.60;71.96;101651.41;5024303;28;20060;-78
2022/01/24 06:47:33;;;;;;;16.02;6.63;;;;;;;4.63;72.20;101655.72;5051464;28;20045;-78
2022/01/24 06:50:27;;;;;;;14.73;7.28;;;;;;;4.50;71.78;101664.03;5026178;28;20049;-78
2022/01/24 06:52:54;;;;;;;15.30;7.07;;;;;;;4.52;71.44;101667.47;5028472;28;20043;-78
2022/01/24 06:55:21;;;;;;;19.00;8.15;;;;;;;4.56;71.73;101666.47;5054080;28;20435;-77
2022/01/24 06:57:47;;;;;;;17.88;7.72;;;;;;;4.56;71.92;101665.59;5067710;28;20048;-77
2022/01/24 07:00:14;;;;;;;14.98;7.15;;;;;;;4.59;72.00;101669.91;5055728;28;20045;-77
2022/01/24 07:02:41;;;;;;;20.83;7.50;;;;;;;4.59;72.05;101670.75;5039958;28;20051;-78
2022/01/24 07:05:08;;;;;;;16.38;6.78;;;;;;;4.62;71.96;101672.41;5055017;28;20399;-78
2022/01/24 07:07:35;;;;;;;15.95;7.28;;;;;;;4.62;71.93;101675.06;5010583;28;20045;-78
2022/01/24 07:10:03;;;;;;;16.42;7.38;;;;;;;4.63;71.92;101671.50;5045786;28;20400;-78
2022/01/24 07:12:51;;;;;;;15.88;8.43;;;;;;;4.60;71.57;101676.88;5023680;28;20052;-77
2022/01/24 07:15:23;;;;;;;17.17;8.75;;;;;;;4.54;71.00;101680.56;5045756;28;20534;-78
2022/01/24 07:18:57;;;;;;;15.13;8.07;;;;;;;4.49;71.33;101683.34;5051392;28;20075;-78
2022/01/24 07:20:43;;;;;;;14.35;6.68;;;;;;;4.50;71.75;101685.09;5045228;28;20541;-79
2022/01/24 07:23:10;;;;;;;16.13;8.57;;;;;;;4.51;71.49;101692.06;5040998;28;20116;-78
2022/01/24 07:25:42;;;;;;;16.35;7.35;;;;;;;4.53;71.92;101703.41;5038511;28;20045;-78
2022/01/24 07:28:37;;;;;;;13.75;6.88;;;;;;;4.46;72.00;101698.38;5054201;28;20389;-79
2022/01/24 07:31:04;;;;;;;17.13;7.18;;;;;;;4.54;72.06;101704.25;5001578;28;20122;-78
2022/01/24 07:33:32;;;;;;;18.90;8.48;;;;;;;4.54;71.78;101699.84;5042506;28;20040;-78
2022/01/24 07:35:59;;;;;;;16.63;8.45;;;;;;;4.57;72.01;101706.78;5059434;28;20130;-78
2022/01/24 07:38:26;;;;;;;18.42;9.18;;;;;;;4.55;71.83;101705.97;5058257;28;20054;-79
2022/01/24 07:40:55;;;;;;;17.40;8.63;;;;;;;4.52;71.66;101709.53;5054276;28;20139;-79
2022/01/24 07:43:22;;;;;;;18.88;8.45;;;;;;;4.56;71.64;101710.31;5021458;28;20040;-80
2022/01/24 07:45:49;;;;;;;16.92;8.95;;;;;;;4.57;71.41;101712.03;5049513;28;20041;-79
2022/01/24 07:48:17;;;;;;;18.55;8.18;;;;;;;4.56;71.51;101713.81;5019487;28;20069;-79
2022/01/24 07:50:47;;;;;;;20.50;8.23;;;;;;;4.48;71.33;101710.59;5050500;28;20116;-79
2022/01/24 07:53:16;;;;;;;17.38;7.63;;;;;;;4.42;71.30;101715.16;5051180;28;20095;-79
2022/01/24 07:56:06;;;;;;;13.45;6.68;;;;;;;4.46;71.08;101711.53;5052211;28;20048;-79
2022/01/24 07:58:37;;;;;;;16.85;7.50;;;;;;;4.48;70.66;101707.94;5050929;28;20052;-78
2022/01/24 08:01:04;;;;;;;15.75;7.35;;;;;;;4.48;71.39;101712.34;5037609;28;20099;-79
2022/01/24 08:03:31;;;;;;;17.52;8.48;;;;;;;4.48;71.49;101699.22;5057175;28;20135;-79
2022/01/24 08:05:58;;;;;;;16.38;7.78;;;;;;;4.49;71.56;101708.81;5026127;28;20049;-78
2022/01/24 08:08:25;;;;;;;14.13;6.60;;;;;;;4.48;71.11;101700.06;5035116;28;20063;-78
2022/01/24 08:10:52;;;;;;;15.13;6.63;;;;;;;4.50;71.49;101707.88;5049527;28;20047;-78
2022/01/24 08:13:23;;;;;;;15.73;7.00;;;;;;;4.50;71.39;101705.25;5005678;28;20136;-79
2022/01/24 08:15:49;;;;;;;18.08;7.30;;;;;;;4.53;71.44;101707.81;4992516;28;20041;-79
2022/01/24 08:18:51;;;;;;;19.88;7.63;;;;;;;4.46;71.70;101704.50;5019865;28;20081;-79
2022/01/24 08:21:19;;;;;;;15.52;6.88;;;;;;;4.55;71.75;101717.38;5008158;28;20056;-79
2022/01/24 08:23:48;;;;;;;14.57;6.95;;;;;;;4.57;71.77;101712.03;4999670;28;20045;-79
2022/01/24 08:26:15;;;;;;;10.27;5.68;;;;;;;4.57;71.79;101710.25;5000130;28;20515;-78
2022/01/24 08:28:42;;;;;;;14.65;6.18;;;;;;;4.59;72.13;101709.38;4995301;28;20048;-78
2022/01/24 08:31:09;;;;;;;17.88;7.03;;;;;;;4.61;71.69;101718.06;4980898;28;20488;-78
2022/01/24 08:33:38;;;;;;;16.38;6.60;;;;;;;4.60;71.83;101719.81;5003335;28;20093;-78
2022/01/24 08:36:10;;;;;;;17.02;7.68;;;;;;;4.58;72.00;101721.66;4994468;28;24781;-79
2022/01/24 08:38:38;;;;;;;16.15;7.68;;;;;;;4.60;72.16;101725.09;4993526;28;20105;-78
2022/01/24 08:41:15;;;;;;;16.30;7.95;;;;;;;4.60;72.23;101725.09;5054687;28;20102;-78
2022/01/24 08:46:21;;;;;;;19.02;7.53;;;;;;;4.56;72.11;101737.50;5044236;28;20087;-78
2022/01/24 08:48:49;;;;;;;12.70;5.85;;;;;;;4.60;72.31;101732.97;5025140;28;20060;-77
2022/01/24 08:51:17;;;;;;;17.60;6.03;;;;;;;4.62;72.39;101731.16;5038033;28;20060;-78
2022/01/24 08:54:06;;;;;;;10.45;6.07;;;;;;;4.60;72.26;101730.34;5045606;28;20052;-77
2022/01/24 08:56:35;;;;;;;10.95;5.53;;;;;;;4.62;72.20;101731.16;5060282;28;20446;-78
2022/01/24 08:59:03;;;;;;;10.57;5.75;;;;;;;4.64;72.09;101736.38;5044348;28;20041;-77
2022/01/24 09:01:30;;;;;;;8.85;4.95;;;;;;;4.65;71.81;101738.09;5047078;28;20369;-77
2022/01/24 09:03:57;;;;;;;14.02;5.78;;;;;;;4.64;72.08;101742.50;5010493;28;20072;-77
2022/01/24 09:06:54;;;;;;;14.45;5.50;;;;;;;4.55;71.86;101734.91;5034397;28;20044;-77
2022/01/24 09:09:20;;;;;;;12.80;5.93;;;;;;;4.63;71.76;101727.63;5060299;28;20052;-77
2022/01/24 09:11:47;;;;;;;12.77;4.80;;;;;;;4.66;72.04;101731.94;5024564;28;20613;-77
2022/01/24 09:14:14;;;;;;;10.77;4.88;;;;;;;4.66;72.06;101732.78;5065780;28;20041;-77
2022/01/24 09:16:41;;;;;;;9.77;4.78;;;;;;;4.67;72.00;101723.13;5004214;28;23590;-77
2022/01/24 09:19:07;;;;;;;12.50;5.75;;;;;;;4.69;72.05;101735.31;5055987;28;20053;-77
2022/01/24 09:22:25;;;;;;;10.40;4.55;;;;;;;4.60;71.66;101730.34;5052513;28;20068;-77
2022/01/24 09:24:53;;;;;;;12.13;5.63;;;;;;;4.67;71.72;101731.88;4988642;28;22262;-78
2022/01/24 09:27:49;;;;;;;15.93;5.53;;;;;;;4.57;71.69;101736.56;5053977;28;20061;-77
2022/01/24 09:30:18;;;;;;;13.02;6.10;;;;;;;4.66;72.17;101737.19;5025437;28;20068;-77
2022/01/24 09:32:47;;;;;;;13.32;5.40;;;;;;;4.65;72.02;101738.94;5043609;28;20479;-78
2022/01/24 09:35:15;;;;;;;16.17;6.88;;;;;;;4.69;72.16;101739.72;5063739;28;20048;-77
2022/01/24 09:37:43;;;;;;;17.70;8.18;;;;;;;4.68;71.95;101741.50;5038048;28;20049;-76
2022/01/24 09:40:15;;;;;;;13.27;6.18;;;;;;;4.70;72.29;101742.28;5037099;28;20047;-76
2022/01/24 09:42:43;;;;;;;12.10;5.97;;;;;;;4.71;72.36;101749.28;5035904;28;20102;-77
2022/01/24 09:45:10;;;;;;;17.60;6.65;;;;;;;4.71;72.03;101753.69;5017966;28;20050;-77
2022/01/24 09:47:42;;;;;;;14.02;6.22;;;;;;;4.69;72.14;101755.50;5026499;28;20040;-77
2022/01/24 09:50:11;;;;;;;10.43;5.15;;;;;;;4.70;72.21;101757.22;5037825;28;20047;-77
2022/01/24 09:52:42;;;;;;;13.68;6.40;;;;;;;4.70;71.83;101765.09;5026611;28;20041;-77
2022/01/24 09:55:09;;;;;;;16.88;8.18;;;;;;;4.70;72.12;101754.59;5058074;28;20040;-77
2022/01/24 09:57:41;;;;;;;17.35;6.82;;;;;;;4.71;72.01;101757.19;5042767;28;20048;-77
2022/01/24 10:00:15;;;;;;;15.52;7.07;;;;;;;4.70;72.08;101752.81;5020106;28;20135;-79
2022/01/24 10:02:43;;;;;;;25.88;10.52;;;;;;;4.74;72.20;101746.53;4999301;28;20063;-77
2022/01/24 10:05:18;;;;;;;26.35;9.73;;;;;;;4.75;72.05;101750.88;5025124;28;20488;-78
2022/01/24 10:07:56;;;;;;;16.83;7.28;;;;;;;4.70;71.99;101747.53;5048374;28;20049;-77
2022/01/24 10:10:45;;;;;;;14.25;6.57;;;;;;;4.69;72.04;101744.97;5042265;28;20079;-77
2022/01/24 10:16:28;;;;;;;10.45;5.45;;;;;;;4.76;71.85;101728.94;5041449;28;20160;-78
2022/01/24 10:19:12;;;;;;;14.82;5.53;;;;;;;4.73;71.91;101733.41;5028608;28;20594;-77
2022/01/24 10:22:00;;;;;;;13.93;5.55;;;;;;;4.79;72.08;101731.44;4996074;28;20048;-77
2022/01/24 10:24:54;;;;;;;12.70;5.90;;;;;;;4.72;72.17;101727.31;5065714;28;20128;-77
2022/01/24 10:27:27;;;;;;;16.52;6.85;;;;;;;4.81;72.12;101730.53;5035650;28;20045;-78
2022/01/24 10:30:04;;;;;;;14.95;4.95;;;;;;;4.83;72.05;101726.09;5057377;28;20131;-77
2022/01/24 10:32:48;;;;;;;15.57;5.50;;;;;;;4.83;71.85;101716.41;5007939;28;20044;-78
2022/01/24 10:45:09;;;;;;;9.95;4.25;;;;;;;4.90;70.28;101696.84;4994899;28;20090;-77
2022/01/24 10:47:44;;;;;;;9.38;4.10;;;;;;;4.91;70.78;101702.97;5025554;28;20052;-78
2022/01/24 10:50:28;;;;;;;9.32;4.25;;;;;;;4.86;69.94;101697.00;5031437;28;20432;-77
2022/01/24 10:53:05;;;;;;;10.85;3.10;;;;;;;4.85;69.71;101693.53;5033808;28;20784;-78
2022/01/24 10:55:32;;;;;;;7.30;3.20;;;;;;;4.88;70.50;101697.81;5027264;28;20071;-77
2022/01/24 10:58:08;;;;;;;7.85;3.50;;;;;;;4.83;70.39;101695.34;5023018;28;20049;-78
2022/01/24 11:01:02;;;;;;;15.05;4.53;;;;;;;4.82;70.69;101698.06;5023622;28;20045;-78
2022/01/24 11:03:29;;;;;;;;;;;;;;;4.75;71.07;101698.25;4996223;28;20041;-79
2022/01/24 11:05:56;;;;;;;6.93;3.72;;;;;;;4.90;71.17;101691.59;4993567;28;19924;-79
2022/01/24 11:09:09;;;;;;;7.57;3.80;;;;;;;4.88;71.25;101692.56;5011217;28;20135;-79
2022/01/24 11:11:36;;;;;;;10.98;3.70;;;;;;;5.11;69.82;101689.13;4961962;28;20310;-78
2022/01/24 11:14:03;;;;;;;8.45;3.60;;;;;;;4.96;69.92;101693.16;5032640;28;20044;-78
2022/01/24 11:16:33;;;;;;;8.10;4.65;;;;;;;4.96;69.66;101694.03;5023197;28;20124;-78
2022/01/24 11:19:01;;;;;;;12.88;3.75;;;;;;;5.05;69.96;101697.25;5008436;28;20059;-79
2022/01/24 11:21:33;;;;;;;9.98;3.88;;;;;;;5.04;68.97;101695.50;5025405;28;20041;-79
2022/01/24 11:24:05;;;;;;;7.88;3.33;;;;;;;5.07;68.22;101690.16;5017742;28;20045;-78
2022/01/24 11:26:35;;;;;;;8.02;4.10;;;;;;;4.90;68.81;101694.22;5054651;28;20044;-78
2022/01/24 11:29:05;;;;;;;9.02;3.85;;;;;;;4.99;69.16;101686.03;5017936;28;20041;-79
2022/01/24 11:31:40;;;;;;;13.75;4.47;;;;;;;4.97;69.21;101687.84;5065883;28;20048;-79
2022/01/24 11:34:30;;;;;;;12.25;3.92;;;;;;;4.97;69.40;101692.25;5048789;28;20488;-77
2022/01/24 11:36:58;;;;;;;8.80;4.07;;;;;;;4.84;69.61;101691.81;5000830;28;20068;-79
2022/01/24 11:39:26;;;;;;;12.48;4.93;;;;;;;4.98;69.20;101689.53;5040976;28;20056;-79
2022/01/24 11:41:53;;;;;;;13.20;4.80;;;;;;;4.96;68.77;101678.22;5022869;28;20048;-78
2022/01/24 11:44:22;;;;;;;10.48;4.22;;;;;;;4.95;69.51;101684.41;5041738;28;20128;-84
2022/01/24 11:46:52;;;;;;;11.50;4.85;;;;;;;4.98;69.93;101673.75;5036685;28;20048;-80
2022/01/24 11:49:27;;;;;;;9.48;4.03;;;;;;;4.94;70.33;101669.53;4994916;28;20052;-78
2022/01/24 11:52:11;;;;;;;8.75;4.03;;;;;;;4.93;70.37;101670.41;5046767;28;20037;-79
2022/01/24 11:55:27;;;;;;;9.50;3.83;;;;;;;4.95;70.38;101665.13;5019268;28;20041;-78
2022/01/24 11:58:29;;;;;;;11.25;4.47;;;;;;;4.96;70.95;101658.91;4986374;28;20357;-78
2022/01/24 12:01:06;;;;;;;9.20;4.60;;;;;;;5.04;70.83;101663.91;5028213;28;20045;-77
2022/01/24 12:03:34;;;;;;;13.68;5.28;;;;;;;5.07;70.87;101662.03;5022373;28;20044;-77
2022/01/24 12:06:09;;;;;;;14.60;5.57;;;;;;;5.13;70.35;101672.34;5049907;28;20144;-77
2022/01/24 12:09:47;;;;;;;9.00;4.85;;;;;;;5.01;70.23;101670.16;5034986;28;20404;-78
2022/01/24 12:12:38;;;;;;;17.45;4.90;;;;;;;5.01;70.17;101656.97;5007192;28;20503;-77
2022/01/24 12:15:07;;;;;;;12.05;5.53;;;;;;;5.10;70.45;101656.66;5016361;28;20099;-77
2022/01/24 12:17:49;;;;;;;13.55;5.43;;;;;;;5.11;69.59;101654.88;5037502;28;20065;-78
2022/01/24 12:20:30;;;;;;;13.10;4.88;;;;;;;5.16;68.39;101659.06;5025694;28;20496;-82
2022/01/24 12:23:19;;;;;;;13.25;5.95;;;;;;;5.10;68.64;101647.91;5045281;28;20133;-78
2022/01/24 12:26:07;;;;;;;22.55;6.82;;;;;;;5.07;69.46;101646.25;5002291;28;20072;-79
2022/01/24 12:28:44;;;;;;;18.77;6.70;;;;;;;5.07;68.93;101645.41;5040786;28;20455;-79
2022/01/24 12:31:28;;;;;;;18.50;6.22;;;;;;;4.97;69.92;101642.22;5052992;28;20484;-77
2022/01/24 12:33:59;;;;;;;12.98;5.50;;;;;;;5.00;69.88;101636.84;5033823;28;20068;-77
2022/01/24 12:36:38;;;;;;;13.65;5.63;;;;;;;4.98;70.30;101638.66;5046088;28;20044;-79
2022/01/24 12:39:11;;;;;;;18.60;6.45;;;;;;;5.01;70.10;101633.28;5028551;28;20400;-80
2022/01/24 12:41:43;;;;;;;12.85;4.82;;;;;;;5.11;70.31;101644.34;5023416;28;21339;-80
2022/01/24 12:46:17;;;;;;;21.70;6.40;;;;;;;5.11;70.22;101641.72;5031213;28;20515;-82
2022/01/24 12:46:57;;;;;;;17.95;5.15;;;;;;;5.12;70.05;101632.91;5035414;28;20041;-82
2022/01/24 12:49:26;;;;;;;21.75;5.53;;;;;;;5.12;70.59;101628.50;5033525;28;20049;-82
2022/01/24 12:51:53;;;;;;;13.35;5.20;;;;;;;5.18;70.81;101619.50;5055973;28;20049;-82
2022/01/24 12:54:20;;;;;;;16.20;6.63;;;;;;;5.25;70.30;101625.41;5042891;28;20055;-81
2022/01/24 12:56:46;;;;;;;15.63;5.43;;;;;;;5.27;69.99;101623.59;5044147;28;20503;-82
2022/01/24 12:59:13;;;;;;;16.70;6.03;;;;;;;5.38;69.34;101624.03;5046652;28;20052;-82
2022/01/24 13:01:42;;;;;;;13.02;5.82;;;;;;;5.37;69.32;101620.53;5042849;28;20046;-82
2022/01/24 13:04:12;;;;;;;17.17;6.07;;;;;;;5.38;70.23;101616.97;5049420;28;20065;-82
2022/01/24 13:06:42;;;;;;;17.23;6.30;;;;;;;5.27;69.42;101621.81;5048432;28;20456;-82
2022/01/24 13:09:14;;;;;;;15.10;7.03;;;;;;;5.36;69.45;101626.72;5050791;28;20484;-81
2022/01/24 13:11:45;;;;;;;19.50;6.82;;;;;;;5.40;69.63;101616.94;5041776;28;20044;-81
2022/01/24 13:14:16;;;;;;;18.85;6.07;;;;;;;5.35;69.82;101619.75;5040169;28;20047;-81
2022/01/24 13:22:26;;;;;;;13.27;6.03;;;;;;;5.28;69.63;101598.97;5036854;28;20053;-81
2022/01/24 13:25:32;;;;;;;20.42;7.25;;;;;;;5.15;70.21;101602.06;5043366;28;20153;-81
2022/01/24 13:28:06;;;;;;;15.30;6.07;;;;;;;5.19;69.89;101595.75;5017754;28;20037;-81
2022/01/24 13:30:46;;;;;;;14.48;6.22;;;;;;;5.19;70.18;101600.16;5050634;28;20044;-81
2022/01/24 13:33:22;;;;;;;21.67;7.70;;;;;;;5.28;69.93;101598.97;5023009;28;20442;-81
2022/01/24 13:35:58;;;;;;;15.60;6.40;;;;;;;5.29;69.98;101598.03;5018227;28;20037;-81
2022/01/24 13:38:35;;;;;;;19.15;7.78;;;;;;;5.07;70.41;101590.94;5014020;28;20045;-81
2022/01/24 13:41:10;;;;;;;19.02;6.55;;;;;;;5.12;70.45;101599.53;5046567;28;20052;-81
2022/01/24 13:43:40;;;;;;;28.85;9.05;;;;;;;5.35;70.07;101590.75;5030856;28;20676;-81
2022/01/24 13:46:11;;;;;;;26.15;9.25;;;;;;;5.35;69.67;101597.81;5067323;28;20076;-81
2022/01/24 13:48:52;;;;;;;19.33;7.95;;;;;;;5.21;70.21;101593.91;5027874;28;20056;-81
2022/01/24 13:51:25;;;;;;;17.40;8.15;;;;;;;5.39;69.48;101587.09;5036973;28;20044;-81
2022/01/24 13:53:53;;;;;;;17.48;8.55;;;;;;;5.29;70.04;101584.84;5049573;28;20044;-81
2022/01/24 13:56:24;;;;;;;17.80;7.10;;;;;;;5.38;69.30;101590.63;5045874;28;20614;-81
2022/01/24 13:59:03;;;;;;;17.08;7.07;;;;;;;5.19;69.86;101581.72;5038532;28;20061;-81
2022/01/24 14:01:31;;;;;;;19.95;7.75;;;;;;;5.21;69.83;101593.91;5054602;28;20052;-81
2022/01/24 14:03:58;;;;;;;29.15;10.90;;;;;;;5.24;69.87;101590.31;5029370;28;20499;-81
2022/01/24 14:06:33;;;;;;;26.50;9.10;;;;;;;5.28;70.07;101588.44;5033042;28;20044;-81